Time;durP1;ratioP1;P1;durP2;ratioP2;P2;SDS_P1;SDS_P2;PMS_P1;PMS_P2;Temp;Humidity;BMP_temperature;BMP_pressure;BME280_temperature;BME280_humidity;BME280_pressure;Samples;Min_cycle;Max_cycle;Signal;HPM_P1;HPM_P2
2022/11/05 00:16:42;;;;;;;4.23;2.23;;;8.90;99.90;;;;;;5018477;28;20228;-72
2022/11/05 00:16:56;;;;;;;9.90;3.43;;;8.80;99.90;;;;;;5021269;28;20297;-72
2022/11/05 00:19:23;;;;;;;4.37;3.40;;;8.90;99.90;;;;;;5007762;28;20302;-72
2022/11/05 00:27:21;;;;;;;7.80;4.43;;;8.70;99.90;;;;;;5023081;28;20237;-72
2022/11/05 00:29:47;;;;;;;10.53;5.70;;;8.60;99.90;;;;;;5003732;28;20209;-72
2022/11/05 00:32:14;;;;;;;12.30;5.77;;;8.50;99.90;;;;;;5018578;28;20332;-72
2022/11/05 00:34:41;;;;;;;12.60;5.70;;;8.50;99.90;;;;;;5018932;28;20671;-74
2022/11/05 00:37:08;;;;;;;8.63;6.20;;;8.40;99.90;;;;;;5021026;28;20252;-71
2022/11/05 00:39:34;;;;;;;11.00;6.87;;;8.40;99.90;;;;;;5017894;28;20210;-72
2022/11/05 00:45:02;;;;;;;13.63;7.80;;;8.30;99.90;;;;;;5016656;28;20564;-72
2022/11/05 00:50:17;;;;;;;17.50;9.67;;;8.20;99.90;;;;;;5019171;28;20640;-71
2022/11/05 00:53:00;;;;;;;14.00;9.60;;;8.10;99.90;;;;;;5018722;28;20262;-72
2022/11/05 00:55:37;;;;;;;17.83;10.10;;;8.10;99.90;;;;;;5022944;28;20313;-72
2022/11/05 00:58:07;;;;;;;16.17;11.03;;;8.10;99.90;;;;;;5022574;28;20203;-72
2022/11/05 01:00:37;;;;;;;17.23;11.07;;;8.00;99.90;;;;;;5018497;28;20253;-72
2022/11/05 01:03:07;;;;;;;21.70;11.23;;;8.00;99.90;;;;;;5003442;28;20220;-72
2022/11/05 01:05:39;;;;;;;21.33;11.97;;;7.70;99.90;;;;;;5018436;28;20541;-72
2022/11/05 01:08:08;;;;;;;18.53;12.27;;;7.90;99.90;;;;;;4999948;28;20202;-72
2022/11/05 01:10:53;;;;;;;18.37;12.43;;;7.80;99.90;;;;;;5015030;28;20244;-72
2022/11/05 01:13:23;;;;;;;18.87;12.47;;;7.80;99.90;;;;;;5009659;28;20204;-71
2022/11/05 01:15:51;;;;;;;22.43;11.93;;;7.70;99.90;;;;;;5016552;28;20668;-73
2022/11/05 01:18:19;;;;;;;25.00;12.73;;;7.70;99.90;;;;;;5019493;28;20613;-72
2022/11/05 01:20:46;;;;;;;23.67;14.10;;;7.70;99.90;;;;;;5021835;28;20210;-73
2022/11/05 01:23:13;;;;;;;24.33;14.50;;;7.60;99.90;;;;;;5019351;28;20194;-73
2022/11/05 01:25:42;;;;;;;23.00;14.30;;;7.60;99.90;;;;;;5016625;28;20568;-72
2022/11/05 01:28:10;;;;;;;25.93;14.77;;;7.50;99.90;;;;;;5020176;28;20201;-72
2022/11/05 01:30:37;;;;;;;19.50;13.63;;;7.50;99.90;;;;;;5019373;28;20295;-72
2022/11/05 01:33:05;;;;;;;21.83;13.93;;;7.50;99.90;;;;;;5016606;28;20297;-71
2022/11/05 01:35:31;;;;;;;22.70;13.37;;;7.50;99.90;;;;;;5005383;28;20295;-71
2022/11/05 01:37:58;;;;;;;19.90;13.57;;;7.40;99.90;;;;;;5016428;28;20212;-72
2022/11/05 01:40:25;;;;;;;21.73;13.57;;;7.40;99.90;;;;;;5017037;28;20542;-72
2022/11/05 01:42:52;;;;;;;21.50;14.20;;;7.40;99.90;;;;;;5018974;28;20704;-72
2022/11/05 01:45:27;;;;;;;20.97;13.43;;;7.30;99.90;;;;;;5004002;28;20785;-71
2022/11/05 01:48:00;;;;;;;23.30;15.07;;;7.30;99.90;;;;;;5017712;28;20431;-72
2022/11/05 01:51:01;;;;;;;22.50;14.50;;;7.30;99.90;;;;;;5015545;28;20397;-71
2022/11/05 01:53:47;;;;;;;19.63;13.23;;;7.30;99.90;;;;;;5016852;28;20212;-72
2022/11/05 01:56:18;;;;;;;18.57;12.60;;;7.20;99.90;;;;;;5016684;28;20220;-72
2022/11/05 01:59:04;;;;;;;21.23;12.80;;;7.20;99.90;;;;;;5011302;28;20289;-72
2022/11/05 02:01:31;;;;;;;18.53;12.47;;;7.20;99.90;;;;;;5020453;28;20213;-71
2022/11/05 02:04:06;;;;;;;18.27;12.10;;;7.20;99.90;;;;;;5016120;28;20266;-72
2022/11/05 02:06:36;;;;;;;18.57;11.47;;;7.10;99.90;;;;;;4995928;28;20218;-72
2022/11/05 02:09:11;;;;;;;21.77;12.23;;;7.10;99.90;;;;;;5018583;28;20204;-71
2022/11/05 02:11:39;;;;;;;24.17;11.73;;;7.20;99.90;;;;;;5017215;28;20667;-72
2022/11/05 02:14:06;;;;;;;21.47;11.80;;;7.10;99.90;;;;;;5013117;28;20217;-72
2022/11/05 02:16:47;;;;;;;16.90;11.33;;;7.10;99.90;;;;;;5016600;28;20213;-72
2022/11/05 02:19:38;;;;;;;17.83;11.77;;;7.10;99.90;;;;;;5018402;28;20323;-72
2022/11/05 02:22:40;;;;;;;17.93;10.20;;;7.10;99.90;;;;;;5018172;28;20228;-72
2022/11/05 02:25:34;;;;;;;21.87;11.53;;;7.10;99.90;;;;;;4994083;28;20388;-72
2022/11/05 02:28:38;;;;;;;14.73;9.53;;;7.10;99.90;;;;;;5016446;28;20317;-72
2022/11/05 02:31:05;;;;;;;17.27;10.73;;;7.10;99.90;;;;;;5022033;28;20223;-72
2022/11/05 02:33:43;;;;;;;16.57;10.43;;;7.10;99.90;;;;;;5016674;28;20225;-72
2022/11/05 02:36:25;;;;;;;19.57;10.13;;;7.10;99.90;;;;;;5018196;28;20214;-72
2022/11/05 02:39:04;;;;;;;17.80;9.90;;;7.10;99.90;;;;;;5010832;28;20294;-72
2022/11/05 02:41:55;;;;;;;17.60;9.60;;;7.10;99.90;;;;;;5015751;28;20215;-72
2022/11/05 02:44:44;;;;;;;17.70;10.13;;;7.10;99.90;;;;;;5002274;28;20236;-71
2022/11/05 02:47:29;;;;;;;13.77;9.03;;;7.10;99.90;;;;;;5016268;28;20219;-72
2022/11/05 02:50:19;;;;;;;17.07;9.27;;;7.10;99.90;;;;;;4999689;28;20194;-71
2022/11/05 02:52:55;;;;;;;19.57;9.60;;;7.10;99.90;;;;;;5014187;28;20729;-72
2022/11/05 02:55:32;;;;;;;19.70;9.80;;;7.10;99.90;;;;;;5016025;28;20204;-71
2022/11/05 02:58:02;;;;;;;16.27;9.57;;;7.10;99.90;;;;;;5000491;28;20294;-72
2022/11/05 03:00:45;;;;;;;16.57;8.93;;;7.10;99.90;;;;;;5003825;28;20209;-73
2022/11/05 03:03:23;;;;;;;17.63;9.23;;;7.10;99.90;;;;;;5011988;28;20775;-72
2022/11/05 03:06:09;;;;;;;14.70;7.93;;;7.10;99.90;;;;;;5017048;28;20263;-72
2022/11/05 03:08:55;;;;;;;14.33;8.73;;;7.10;99.90;;;;;;5015606;28;20220;-71
2022/11/05 03:11:24;;;;;;;16.97;8.87;;;7.10;99.90;;;;;;5013990;28;21103;-72
2022/11/05 03:14:10;;;;;;;19.13;8.60;;;7.10;99.90;;;;;;5015884;28;20295;-72
2022/11/05 03:16:41;;;;;;;21.00;8.83;;;7.00;99.90;;;;;;5014072;28;20754;-71
2022/11/05 03:19:44;;;;;;;14.87;8.57;;;7.00;99.90;;;;;;5011049;28;20300;-72
2022/11/05 03:22:15;;;;;;;15.63;8.30;;;7.00;99.90;;;;;;5019812;28;20219;-73
2022/11/05 03:24:47;;;;;;;15.77;8.53;;;7.00;99.90;;;;;;5011091;28;20214;-72
2022/11/05 03:27:18;;;;;;;18.70;8.37;;;7.00;99.90;;;;;;5009450;28;20314;-71
2022/11/05 03:29:51;;;;;;;13.43;8.20;;;7.00;99.90;;;;;;5017911;28;20300;-72
2022/11/05 03:32:21;;;;;;;19.50;9.37;;;7.00;99.90;;;;;;5007120;28;20274;-72
2022/11/05 03:34:52;;;;;;;18.47;8.37;;;7.00;99.90;;;;;;4984563;28;20331;-73
2022/11/05 03:37:22;;;;;;;14.73;8.30;;;7.00;99.90;;;;;;5018596;28;20230;-71
2022/11/05 03:39:57;;;;;;;14.67;7.93;;;7.00;99.90;;;;;;5017653;28;20215;-72
2022/11/05 03:42:31;;;;;;;14.30;8.33;;;7.00;99.90;;;;;;5005483;28;20213;-72
2022/11/05 03:45:04;;;;;;;14.33;8.27;;;7.00;99.90;;;;;;5013070;28;20292;-72
2022/11/05 03:47:35;;;;;;;15.53;8.37;;;7.00;99.90;;;;;;5015789;28;20242;-71
2022/11/05 03:50:27;;;;;;;16.27;8.53;;;7.00;99.90;;;;;;5016206;28;20205;-72
2022/11/05 03:53:04;;;;;;;12.70;8.57;;;7.00;99.90;;;;;;5011385;28;20223;-73
2022/11/05 03:55:37;;;;;;;17.77;8.50;;;7.00;99.90;;;;;;5011804;28;20656;-72
2022/11/05 03:58:05;;;;;;;17.13;8.00;;;7.00;99.90;;;;;;4996744;28;20273;-72
2022/11/05 04:00:32;;;;;;;18.47;8.97;;;7.00;99.90;;;;;;5017045;28;20610;-72
2022/11/05 04:02:59;;;;;;;17.37;9.40;;;7.00;99.90;;;;;;5019688;28;20205;-72
2022/11/05 04:05:26;;;;;;;17.73;8.57;;;7.00;99.90;;;;;;5011265;28;20224;-72
2022/11/05 04:13:26;;;;;;;16.87;8.80;;;7.00;99.90;;;;;;5013778;28;20279;-72
2022/11/05 04:18:41;;;;;;;12.97;8.53;;;6.90;99.90;;;;;;5011898;28;20664;-72
2022/11/05 04:24:09;;;;;;;15.40;8.50;;;6.90;99.90;;;;;;4983855;28;20296;-73
2022/11/05 04:26:42;;;;;;;14.67;8.83;;;6.90;99.90;;;;;;5020898;28;20249;-72
2022/11/05 04:31:55;;;;;;;13.57;9.13;;;6.90;99.90;;;;;;5016697;28;20309;-72
2022/11/05 04:34:21;;;;;;;17.10;9.80;;;6.80;99.90;;;;;;5015473;28;20324;-71
2022/11/05 04:36:50;;;;;;;20.87;10.17;;;6.80;99.90;;;;;;5015287;28;20231;-72
2022/11/05 04:39:18;;;;;;;17.33;10.23;;;6.80;99.90;;;;;;5023515;28;20760;-72
2022/11/05 04:41:47;;;;;;;16.33;10.10;;;6.80;99.90;;;;;;5019097;28;20756;-72
2022/11/05 04:44:15;;;;;;;18.73;10.10;;;6.80;99.90;;;;;;5000656;28;20215;-71
2022/11/05 04:46:42;;;;;;;21.07;9.73;;;6.80;99.90;;;;;;5015915;28;20588;-72
2022/11/05 04:49:09;;;;;;;17.13;10.23;;;6.70;99.90;;;;;;5019452;28;20684;-72
2022/11/05 04:51:36;;;;;;;18.83;10.60;;;6.70;99.90;;;;;;5020507;28;20235;-73
2022/11/05 04:54:02;;;;;;;21.70;10.93;;;6.70;99.90;;;;;;5021672;28;20574;-72
2022/11/05 04:56:29;;;;;;;22.63;10.90;;;6.70;99.90;;;;;;5016954;28;20696;-73
2022/11/05 04:58:56;;;;;;;18.27;11.23;;;6.70;99.90;;;;;;5013613;28;20214;-72
2022/11/05 05:01:24;;;;;;;22.47;12.10;;;6.70;99.90;;;;;;5021608;28;20286;-72
2022/11/05 05:03:52;;;;;;;22.07;11.20;;;6.70;99.90;;;;;;5020073;28;20213;-72
2022/11/05 05:06:20;;;;;;;20.37;11.13;;;6.60;99.90;;;;;;5002370;28;20307;-72
2022/11/05 05:08:48;;;;;;;20.03;11.33;;;6.60;99.90;;;;;;5017446;28;20313;-72
2022/11/05 05:11:18;;;;;;;21.90;11.60;;;6.60;99.90;;;;;;5017280;28;20194;-73
2022/11/05 05:13:46;;;;;;;20.60;11.77;;;6.60;99.90;;;;;;5008986;28;20211;-72
2022/11/05 05:16:20;;;;;;;22.30;12.63;;;6.60;99.90;;;;;;5014818;28;20213;-72
2022/11/05 05:18:47;;;;;;;21.97;12.70;;;6.60;99.90;;;;;;5013987;28;20211;-72
2022/11/05 05:24:02;;;;;;;24.57;11.77;;;6.60;99.90;;;;;;5017197;28;20208;-72
2022/11/05 05:26:28;;;;;;;20.23;13.07;;;6.60;99.90;;;;;;4998386;28;21169;-71
2022/11/05 05:28:55;;;;;;;21.40;12.57;;;6.60;99.90;;;;;;5021049;28;20562;-72
2022/11/05 05:31:22;;;;;;;21.97;12.80;;;6.60;99.90;;;;;;5020816;28;20306;-72
2022/11/05 05:33:52;;;;;;;26.50;12.70;;;6.60;99.90;;;;;;5018903;28;20315;-72
2022/11/05 05:36:19;;;;;;;20.83;12.33;;;6.60;99.90;;;;;;5015669;28;20319;-72
2022/11/05 05:38:46;;;;;;;23.47;13.17;;;6.60;99.90;;;;;;5019570;28;20209;-72
2022/11/05 05:41:14;;;;;;;19.57;11.90;;;6.60;99.90;;;;;;5020994;28;20211;-74
2022/11/05 05:43:40;;;;;;;24.03;12.30;;;6.50;99.90;;;;;;5019253;28;20206;-71
2022/11/05 05:46:10;;;;;;;20.80;13.27;;;6.50;99.90;;;;;;5016635;28;20196;-72
2022/11/05 05:48:37;;;;;;;20.23;12.40;;;6.50;99.90;;;;;;5017367;28;20206;-71
2022/11/05 05:51:06;;;;;;;22.87;12.43;;;6.60;99.90;;;;;;5018053;28;20315;-72
2022/11/05 05:53:34;;;;;;;20.70;12.73;;;6.60;99.90;;;;;;5021933;28;20267;-72
2022/11/05 05:56:01;;;;;;;24.67;13.73;;;6.50;99.90;;;;;;4995007;28;20297;-72
2022/11/05 05:58:34;;;;;;;21.70;12.57;;;6.50;99.90;;;;;;5016832;28;20322;-72
2022/11/05 06:01:07;;;;;;;20.43;11.93;;;6.50;99.90;;;;;;5020127;28;20293;-71
2022/11/05 06:03:36;;;;;;;18.63;11.73;;;6.60;99.90;;;;;;5018632;28;20214;-72
2022/11/05 06:06:05;;;;;;;22.70;11.97;;;6.60;99.90;;;;;;5016471;28;20228;-72
2022/11/05 06:08:33;;;;;;;20.00;12.43;;;6.50;99.90;;;;;;5015182;28;20203;-72
2022/11/05 06:11:01;;;;;;;22.97;12.80;;;6.50;99.90;;;;;;5009606;28;20262;-72
2022/11/05 06:13:28;;;;;;;21.10;12.97;;;6.50;99.90;;;;;;5003887;28;20260;-73
2022/11/05 06:16:03;;;;;;;22.33;12.47;;;6.50;99.90;;;;;;5011624;28;20556;-73
2022/11/05 06:18:31;;;;;;;21.97;12.43;;;6.50;99.90;;;;;;5003398;28;20214;-73
2022/11/05 06:21:06;;;;;;;21.60;12.53;;;6.50;99.90;;;;;;5002604;28;20304;-71
2022/11/05 06:23:36;;;;;;;19.17;12.10;;;6.40;99.90;;;;;;5010116;28;20204;-70
2022/11/05 06:26:05;;;;;;;21.27;11.57;;;6.50;99.90;;;;;;5002844;28;20213;-72
2022/11/05 06:28:32;;;;;;;20.47;11.73;;;6.40;99.90;;;;;;5009527;28;20208;-72
2022/11/05 06:30:59;;;;;;;21.20;12.17;;;6.50;99.90;;;;;;5017721;28;20292;-71
2022/11/05 06:33:26;;;;;;;20.10;12.43;;;6.40;99.90;;;;;;5004566;28;20630;-72
2022/11/05 06:35:53;;;;;;;21.20;12.53;;;6.40;99.90;;;;;;5014598;28;20234;-71
2022/11/05 06:38:20;;;;;;;19.47;12.77;;;6.40;99.90;;;;;;5007036;28;20574;-72
2022/11/05 06:40:47;;;;;;;17.73;12.20;;;6.40;99.90;;;;;;5013860;28;20225;-72
2022/11/05 06:43:13;;;;;;;23.13;12.80;;;6.40;99.90;;;;;;4999471;28;20207;-72
2022/11/05 06:45:40;;;;;;;25.17;12.60;;;6.40;99.90;;;;;;5011309;28;20296;-72
2022/11/05 06:48:07;;;;;;;22.27;12.80;;;6.40;99.90;;;;;;5011545;28;20238;-73
2022/11/05 06:50:34;;;;;;;18.43;11.73;;;6.40;99.90;;;;;;5013215;28;20291;-73
2022/11/05 06:53:04;;;;;;;17.43;11.67;;;6.50;99.90;;;;;;5014638;28;20229;-72
2022/11/05 06:55:31;;;;;;;22.93;14.00;;;6.50;99.90;;;;;;5013857;28;20283;-75
2022/11/05 06:58:01;;;;;;;21.37;12.83;;;6.50;99.90;;;;;;5011208;28;20680;-73
2022/11/05 07:00:27;;;;;;;17.70;12.20;;;6.50;99.90;;;;;;5012989;28;20234;-74
2022/11/05 07:02:55;;;;;;;23.60;13.90;;;6.60;99.90;;;;;;5011639;28;20203;-72
2022/11/05 07:05:22;;;;;;;22.87;13.97;;;6.60;99.90;;;;;;4998126;28;20277;-73
2022/11/05 07:07:49;;;;;;;19.63;14.13;;;6.60;99.90;;;;;;5013206;28;20265;-73
2022/11/05 07:10:19;;;;;;;30.00;15.20;;;6.60;99.90;;;;;;5007457;28;20290;-73
2022/11/05 07:12:46;;;;;;;21.97;13.67;;;6.70;99.90;;;;;;4997589;28;20338;-73
2022/11/05 07:15:12;;;;;;;23.53;13.20;;;6.70;99.90;;;;;;5016143;28;20302;-73
2022/11/05 07:17:39;;;;;;;19.40;12.30;;;6.80;99.90;;;;;;5003940;28;20671;-73
2022/11/05 07:20:07;;;;;;;24.13;13.87;;;6.80;99.90;;;;;;5006601;28;20206;-73
2022/11/05 07:22:34;;;;;;;22.43;12.93;;;6.80;99.90;;;;;;5007974;28;20731;-72
2022/11/05 07:25:01;;;;;;;23.27;11.80;;;6.80;99.90;;;;;;5012018;28;20290;-73
2022/11/05 07:27:28;;;;;;;18.00;11.77;;;6.80;99.90;;;;;;5012265;28;20212;-75
2022/11/05 07:29:55;;;;;;;19.13;13.03;;;6.80;99.90;;;;;;5018099;28;20540;-73
2022/11/05 07:32:22;;;;;;;25.57;12.90;;;6.80;99.90;;;;;;5012573;28;20230;-72
2022/11/05 07:34:50;;;;;;;20.33;11.67;;;6.80;99.90;;;;;;5012485;28;20230;-73
2022/11/05 07:37:17;;;;;;;21.33;12.33;;;6.90;99.90;;;;;;4992169;28;20826;-72
2022/11/05 07:39:43;;;;;;;18.87;10.97;;;6.90;99.90;;;;;;5012140;28;20216;-72
2022/11/05 07:42:12;;;;;;;18.30;10.93;;;6.90;99.90;;;;;;5010941;28;20696;-73
2022/11/05 07:44:39;;;;;;;18.23;11.07;;;6.90;99.90;;;;;;5013778;28;20215;-71
2022/11/05 07:47:06;;;;;;;17.03;11.37;;;6.90;99.90;;;;;;4998565;28;20291;-72
2022/11/05 07:49:33;;;;;;;24.27;12.70;;;7.00;99.90;;;;;;5016764;28;20242;-72
2022/11/05 07:51:59;;;;;;;19.63;13.03;;;7.00;99.90;;;;;;5012174;28;20305;-73
2022/11/05 07:54:30;;;;;;;18.97;12.90;;;7.10;99.90;;;;;;5009491;28;20238;-70
2022/11/05 07:56:57;;;;;;;25.03;12.17;;;7.30;99.90;;;;;;5017526;28;20289;-72
2022/11/05 07:59:24;;;;;;;19.60;11.00;;;7.40;99.90;;;;;;5021576;28;20212;-73
2022/11/05 08:01:51;;;;;;;19.23;10.30;;;7.60;99.90;;;;;;5021239;28;20691;-72
2022/11/05 08:04:21;;;;;;;17.43;10.83;;;7.70;99.90;;;;;;5020656;28;20294;-72
2022/11/05 08:06:47;;;;;;;13.13;8.97;;;7.80;99.90;;;;;;5021964;28;20222;-72
2022/11/05 08:09:14;;;;;;;15.23;9.07;;;7.80;99.90;;;;;;5018916;28;20350;-71
2022/11/05 08:11:41;;;;;;;16.00;8.83;;;7.90;99.90;;;;;;5021327;28;20237;-73
2022/11/05 08:14:08;;;;;;;14.13;9.33;;;7.90;99.90;;;;;;5021084;28;20256;-72
2022/11/05 08:16:34;;;;;;;13.40;8.80;;;7.90;99.90;;;;;;5019552;28;20209;-72
2022/11/05 08:19:01;;;;;;;12.97;9.20;;;8.00;99.90;;;;;;5003743;28;20635;-72
2022/11/05 08:21:28;;;;;;;15.60;9.70;;;8.00;99.90;;;;;;5020647;28;20217;-72
2022/11/05 08:23:54;;;;;;;15.23;9.60;;;8.00;99.90;;;;;;5005682;28;20198;-72
2022/11/05 08:26:21;;;;;;;12.40;8.83;;;8.10;99.90;;;;;;5022016;28;20241;-72
2022/11/05 08:28:48;;;;;;;14.70;8.73;;;8.10;99.90;;;;;;5020689;28;20212;-73
2022/11/05 08:31:16;;;;;;;13.43;8.73;;;8.10;99.90;;;;;;5021728;28;20635;-72
2022/11/05 08:33:43;;;;;;;14.70;8.53;;;8.20;99.90;;;;;;5017038;28;20694;-71
2022/11/05 08:36:10;;;;;;;16.13;8.20;;;8.30;99.90;;;;;;5016026;28;20230;-72
2022/11/05 08:38:37;;;;;;;16.60;9.00;;;8.30;99.90;;;;;;5020380;28;20698;-73
2022/11/05 08:41:04;;;;;;;15.73;9.00;;;8.30;99.90;;;;;;5009645;28;20534;-73
2022/11/05 08:43:30;;;;;;;14.57;8.83;;;8.30;99.90;;;;;;5014381;28;20216;-72
2022/11/05 08:46:00;;;;;;;15.00;8.27;;;8.40;99.90;;;;;;5018165;28;20584;-73
2022/11/05 08:48:26;;;;;;;14.40;8.93;;;8.30;99.90;;;;;;5012522;28;20613;-73
2022/11/05 08:50:53;;;;;;;14.00;8.83;;;8.30;99.90;;;;;;5017926;28;20219;-73
2022/11/05 08:53:20;;;;;;;13.07;8.40;;;8.30;99.90;;;;;;5014197;28;20257;-72
2022/11/05 08:55:48;;;;;;;15.30;8.90;;;8.30;99.90;;;;;;4995351;28;20220;-72
2022/11/05 08:58:16;;;;;;;15.30;9.27;;;8.40;99.90;;;;;;5017928;28;20214;-73
2022/11/05 09:00:45;;;;;;;15.20;9.73;;;8.40;99.90;;;;;;5018476;28;20648;-74
2022/11/05 09:03:13;;;;;;;17.30;9.70;;;8.50;99.90;;;;;;5015999;28;20234;-73
2022/11/05 09:05:41;;;;;;;15.17;9.30;;;8.50;99.90;;;;;;5013223;28;20203;-73
2022/11/05 09:08:17;;;;;;;15.53;9.03;;;8.50;99.90;;;;;;5016998;28;20675;-72
2022/11/05 09:10:45;;;;;;;16.47;8.70;;;8.50;99.90;;;;;;5003597;28;20201;-73
2022/11/05 09:13:12;;;;;;;14.60;9.53;;;8.60;99.90;;;;;;5013246;28;20224;-73
2022/11/05 09:15:46;;;;;;;15.53;9.37;;;8.70;99.90;;;;;;5019754;28;20290;-74
2022/11/05 09:18:14;;;;;;;15.17;9.30;;;8.70;99.90;;;;;;5018683;28;20214;-71
2022/11/05 09:20:41;;;;;;;17.73;9.23;;;8.80;99.90;;;;;;5013625;28;20662;-71
2022/11/05 09:23:09;;;;;;;14.23;8.67;;;8.80;99.90;;;;;;5019172;28;20244;-72
2022/11/05 09:25:36;;;;;;;12.97;9.20;;;8.90;99.90;;;;;;5013847;28;20661;-69
2022/11/05 09:28:14;;;;;;;12.53;8.17;;;9.00;99.90;;;;;;5012608;28;20214;-71
2022/11/05 09:30:50;;;;;;;17.07;8.67;;;9.00;99.90;;;;;;5020703;28;20662;-73
2022/11/05 09:33:19;;;;;;;12.77;8.87;;;9.10;99.90;;;;;;5013736;28;20319;-74
2022/11/05 09:35:46;;;;;;;10.97;8.53;;;9.20;99.90;;;;;;5014248;28;20227;-74
2022/11/05 09:38:13;;;;;;;14.13;8.47;;;9.20;99.90;;;;;;5014507;28;20204;-75
2022/11/05 09:40:56;;;;;;;14.87;8.43;;;9.30;99.90;;;;;;5016160;28;20196;-74
2022/11/05 09:43:31;;;;;;;17.77;7.67;;;9.40;99.90;;;;;;5018123;28;20208;-73
2022/11/05 09:46:03;;;;;;;11.33;7.80;;;9.50;99.90;;;;;;5011753;28;20683;-74
2022/11/05 09:48:32;;;;;;;16.07;8.13;;;9.60;99.90;;;;;;5016714;28;20490;-74
2022/11/05 09:50:59;;;;;;;14.40;9.10;;;9.60;99.90;;;;;;5019039;28;20219;-73
2022/11/05 09:53:27;;;;;;;12.47;7.43;;;9.70;99.90;;;;;;5022153;28;20323;-73
2022/11/05 09:55:56;;;;;;;10.90;6.97;;;9.80;99.90;;;;;;5016431;28;20298;-74
2022/11/05 09:58:42;;;;;;;16.00;8.67;;;9.80;99.90;;;;;;5011911;28;20220;-74
2022/11/05 10:01:22;;;;;;;10.23;6.27;;;9.90;99.90;;;;;;5013974;28;20212;-74
2022/11/05 10:03:53;;;;;;;11.40;6.43;;;10.00;99.90;;;;;;5018827;28;20669;-74
2022/11/05 10:06:23;;;;;;;11.70;6.47;;;10.00;99.90;;;;;;5011855;28;20395;-73
2022/11/05 10:09:06;;;;;;;11.63;6.57;;;10.10;99.90;;;;;;5016727;28;20213;-72
2022/11/05 10:11:47;;;;;;;9.63;5.93;;;10.20;99.90;;;;;;5019433;28;20634;-71
2022/11/05 10:14:22;;;;;;;9.87;5.90;;;10.30;99.90;;;;;;5016967;28;20237;-72
2022/11/05 10:16:56;;;;;;;11.87;6.70;;;10.30;99.90;;;;;;5011903;28;20622;-73
2022/11/05 10:19:27;;;;;;;31.33;8.77;;;10.40;99.90;;;;;;5017048;28;20212;-72
2022/11/05 10:22:01;;;;;;;14.03;6.83;;;10.40;99.90;;;;;;5017721;28;20716;-72
2022/11/05 10:24:33;;;;;;;12.00;6.40;;;10.50;99.90;;;;;;5012014;28;20206;-74
2022/11/05 10:27:00;;;;;;;12.10;6.80;;;10.50;99.90;;;;;;5019100;28;20194;-72
2022/11/05 10:29:31;;;;;;;9.00;6.50;;;10.60;99.90;;;;;;5018908;28;20204;-74
2022/11/05 10:32:00;;;;;;;11.03;5.77;;;10.70;99.90;;;;;;5011493;28;20205;-73
2022/11/05 10:34:38;;;;;;;12.30;6.20;;;10.70;99.90;;;;;;5013741;28;20234;-75
2022/11/05 10:37:04;;;;;;;15.97;8.10;;;10.80;99.90;;;;;;5013022;28;20218;-73
2022/11/05 10:39:32;;;;;;;7.77;6.67;;;10.90;99.90;;;;;;5011940;28;20211;-74
2022/11/05 10:42:25;;;;;;;12.17;6.37;;;11.00;99.90;;;;;;5018545;28;20205;-74
2022/11/05 10:45:01;;;;;;;11.13;6.40;;;11.10;99.90;;;;;;5010513;28;20680;-74
2022/11/05 10:47:59;;;;;;;12.30;6.37;;;11.20;99.90;;;;;;4997152;28;20529;-73
2022/11/05 10:50:28;;;;;;;15.23;6.50;;;11.30;99.90;;;;;;5015192;28;20377;-73
2022/11/05 10:53:00;;;;;;;12.47;6.33;;;11.40;99.90;;;;;;5011873;28;20262;-73
2022/11/05 10:55:35;;;;;;;9.80;6.57;;;11.50;99.90;;;;;;5016177;28;20205;-71
2022/11/05 10:58:09;;;;;;;11.23;6.23;;;11.60;99.90;;;;;;5019345;28;20809;-74
2022/11/05 11:00:36;;;;;;;11.33;5.93;;;11.70;99.90;;;;;;5018973;28;20233;-74
2022/11/05 11:03:24;;;;;;;10.80;6.73;;;11.80;99.90;;;;;;5000448;28;20241;-73
2022/11/05 11:05:59;;;;;;;10.43;6.23;;;11.90;99.90;;;;;;5014973;28;20523;-73
2022/11/05 11:08:27;;;;;;;11.27;5.80;;;12.00;99.90;;;;;;5017600;28;20300;-74
2022/11/05 11:10:57;;;;;;;16.73;6.63;;;12.10;99.90;;;;;;5018900;28;20298;-74
2022/11/05 11:13:45;;;;;;;9.07;6.03;;;12.10;99.90;;;;;;5015893;28;20227;-71
2022/11/05 11:16:25;;;;;;;11.77;6.23;;;12.10;99.90;;;;;;5014811;28;20300;-73
2022/11/05 11:18:59;;;;;;;11.87;5.83;;;12.20;99.90;;;;;;5015981;28;20767;-73
2022/11/05 11:21:28;;;;;;;9.20;5.60;;;12.20;99.90;;;;;;5016201;28;20222;-75
2022/11/05 11:24:02;;;;;;;11.93;6.20;;;12.30;99.90;;;;;;5014042;28;20314;-73
2022/11/05 11:26:32;;;;;;;12.70;6.70;;;12.30;99.90;;;;;;5018183;28;20197;-74
2022/11/05 11:29:27;;;;;;;11.67;6.57;;;12.40;99.90;;;;;;5016966;28;20240;-73
2022/11/05 11:31:58;;;;;;;7.47;5.73;;;12.40;99.90;;;;;;5012834;28;20208;-75
2022/11/05 11:34:29;;;;;;;12.37;5.80;;;12.50;99.90;;;;;;5015844;28;20229;-73
2022/11/05 11:37:07;;;;;;;9.40;5.37;;;12.60;99.90;;;;;;5021101;28;20221;-74
2022/11/05 11:39:37;;;;;;;11.07;5.27;;;12.50;99.90;;;;;;5020153;28;20633;-73
2022/11/05 11:42:27;;;;;;;9.30;5.20;;;12.60;99.90;;;;;;5015367;28;20217;-74
2022/11/05 11:44:58;;;;;;;10.20;5.50;;;12.60;99.90;;;;;;5016970;28;20289;-73
2022/11/05 11:47:26;;;;;;;6.57;5.03;;;12.70;99.90;;;;;;5018927;28;20645;-74
2022/11/05 11:49:56;;;;;;;8.83;5.07;;;12.70;99.90;;;;;;5000660;28;20207;-73
2022/11/05 11:52:31;;;;;;;10.20;5.70;;;12.70;99.90;;;;;;5019818;28;20264;-73
2022/11/05 11:55:20;;;;;;;9.60;4.93;;;12.70;99.90;;;;;;5023105;28;20308;-73
2022/11/05 11:57:50;;;;;;;8.13;4.50;;;12.80;99.90;;;;;;5015493;28;20301;-73
2022/11/05 12:00:18;;;;;;;7.17;4.50;;;12.70;99.90;;;;;;5017066;28;20201;-74
2022/11/05 12:03:18;;;;;;;9.17;5.20;;;12.70;99.90;;;;;;5016899;28;20216;-73
2022/11/05 12:06:22;;;;;;;9.27;4.63;;;12.60;99.90;;;;;;5013847;28;20595;-73
2022/11/05 12:09:08;;;;;;;7.13;4.67;;;12.70;99.90;;;;;;5018628;28;20317;-73
2022/11/05 12:12:07;;;;;;;8.97;4.53;;;12.70;99.90;;;;;;5010577;28;20218;-73
2022/11/05 12:14:49;;;;;;;7.97;4.43;;;12.70;99.90;;;;;;5015900;28;20236;-74
2022/11/05 12:17:38;;;;;;;11.47;4.60;;;12.80;99.90;;;;;;4987117;28;20712;-74
2022/11/05 12:20:22;;;;;;;7.90;5.17;;;12.80;99.90;;;;;;5001628;28;20208;-72
2022/11/05 12:23:21;;;;;;;8.37;4.90;;;12.80;99.90;;;;;;5020125;28;20233;-74
2022/11/05 12:25:57;;;;;;;6.07;4.70;;;12.90;99.90;;;;;;5020013;28;20206;-74
2022/11/05 12:28:39;;;;;;;7.37;4.97;;;12.90;99.90;;;;;;5013032;28;20309;-74
2022/11/05 12:32:04;;;;;;;8.67;4.27;;;12.80;99.90;;;;;;5020774;28;20293;-73
2022/11/05 12:34:56;;;;;;;7.63;4.13;;;12.60;99.90;;;;;;5016254;28;20440;-74
2022/11/05 12:37:56;;;;;;;5.70;3.87;;;12.60;99.90;;;;;;5022054;28;20309;-73
2022/11/05 12:40:35;;;;;;;10.90;4.33;;;12.60;99.90;;;;;;5017242;28;20607;-73
2022/11/05 12:43:39;;;;;;;7.00;4.00;;;12.50;99.90;;;;;;4990932;28;20219;-73
2022/11/05 12:46:12;;;;;;;9.87;4.57;;;12.50;99.90;;;;;;5015256;28;20732;-74
2022/11/05 12:48:46;;;;;;;7.13;4.10;;;12.50;99.90;;;;;;5020577;28;20248;-73
2022/11/05 12:51:32;;;;;;;10.27;4.37;;;12.50;99.90;;;;;;5015395;28;20221;-72
2022/11/05 12:54:11;;;;;;;7.70;4.57;;;12.50;99.90;;;;;;5014557;28;20661;-72
2022/11/05 12:56:45;;;;;;;6.20;4.23;;;12.50;99.90;;;;;;5018908;28;20259;-72
2022/11/05 12:59:12;;;;;;;5.93;4.23;;;12.50;99.90;;;;;;5018954;28;20292;-73
2022/11/05 13:01:43;;;;;;;6.80;3.87;;;12.60;99.90;;;;;;5020287;28;20264;-74
2022/11/05 13:04:22;;;;;;;6.03;3.87;;;12.60;99.90;;;;;;5015494;28;20288;-74
2022/11/05 13:06:54;;;;;;;8.27;3.90;;;12.60;99.90;;;;;;5018179;28;20246;-72
2022/11/05 13:09:27;;;;;;;6.17;3.80;;;12.60;99.90;;;;;;5018837;28;20202;-73
2022/11/05 13:12:02;;;;;;;7.57;4.13;;;12.60;99.90;;;;;;5022609;28;20214;-72
2022/11/05 13:14:55;;;;;;;8.57;4.20;;;12.60;99.90;;;;;;5006184;28;20237;-73
2022/11/05 13:17:27;;;;;;;9.10;4.60;;;12.70;99.90;;;;;;4996103;28;20207;-71
2022/11/05 13:20:15;;;;;;;8.70;4.40;;;12.70;99.90;;;;;;5017042;28;20841;-73
2022/11/05 13:23:12;;;;;;;10.50;5.03;;;12.70;99.90;;;;;;5019789;28;20233;-72
2022/11/05 13:25:48;;;;;;;9.03;5.20;;;12.80;99.90;;;;;;5019200;28;20660;-73
2022/11/05 13:28:29;;;;;;;7.20;4.93;;;12.80;99.90;;;;;;5015437;28;20659;-72
2022/11/05 13:31:00;;;;;;;8.63;4.70;;;12.80;99.90;;;;;;5020942;28;20206;-72
2022/11/05 13:33:33;;;;;;;10.37;4.87;;;12.70;99.90;;;;;;5018708;28;20215;-73
2022/11/05 13:38:58;;;;;;;15.17;5.80;;;12.70;99.90;;;;;;5017569;28;20210;-72
2022/11/05 13:41:52;;;;;;;8.70;5.13;;;12.60;99.90;;;;;;4999939;28;20292;-73
2022/11/05 13:44:49;;;;;;;9.47;5.20;;;12.70;99.90;;;;;;5015855;28;20643;-72
2022/11/05 13:47:22;;;;;;;7.77;4.83;;;12.70;99.90;;;;;;5015549;28;20237;-73
2022/11/05 13:50:26;;;;;;;9.60;5.50;;;12.70;99.90;;;;;;4993410;28;20210;-74
2022/11/05 13:53:27;;;;;;;9.53;5.57;;;12.60;99.90;;;;;;5006250;28;20268;-72
2022/11/05 13:56:18;;;;;;;8.23;6.10;;;12.60;99.90;;;;;;4986988;28;20309;-73